Time;durP1;ratioP1;P1;durP2;ratioP2;P2;SDS_P1;SDS_P2;PMS_P1;PMS_P2;Temp;Humidity;BMP_temperature;BMP_pressure;BME280_temperature;BME280_humidity;BME280_pressure;Samples;Min_cycle;Max_cycle;Signal;HPM_P1;HPM_P2
2022/12/29 00:02:27;;;;;;;0.40;0.40;;;11.30;99.90;;;11.38;100.00;99884.69;5208641;28;20053;-73
2022/12/29 00:04:59;;;;;;;0.57;0.43;;;11.40;99.90;;;11.37;100.00;99877.72;5226590;28;20037;-73
2022/12/29 00:07:31;;;;;;;0.82;0.40;;;11.30;99.90;;;11.37;100.00;99881.19;5225610;28;20049;-76
2022/12/29 00:10:04;;;;;;;0.50;0.50;;;11.40;99.90;;;11.38;100.00;99874.25;5212298;28;20391;-72
2022/12/29 00:15:38;;;;;;;0.45;0.45;;;11.40;99.90;;;11.40;100.00;99867.31;5184367;28;20045;-74
2022/12/29 00:18:10;;;;;;;0.65;0.50;;;11.40;99.90;;;11.44;100.00;99858.69;5191647;28;20052;-73
2022/12/29 00:35:11;;;;;;;0.40;0.32;;;11.40;99.90;;;11.48;100.00;99863.13;5200447;28;20117;-76
2022/12/29 00:46:21;;;;;;;0.43;0.40;;;11.40;99.90;;;11.53;100.00;99840.56;5183704;28;20097;-73
2022/12/29 00:51:43;;;;;;;0.40;0.40;;;11.50;99.90;;;11.55;100.00;99825.81;5183262;28;20088;-74
2022/12/29 00:54:16;;;;;;;0.30;0.28;;;11.50;99.90;;;11.58;100.00;99835.41;5166627;28;20060;-74
2022/12/29 00:56:48;;;;;;;0.68;0.50;;;11.60;99.90;;;11.60;100.00;99845.00;5184376;28;20399;-74
2022/12/29 00:59:23;;;;;;;0.20;0.20;;;11.60;99.90;;;11.63;100.00;99846.81;5183980;28;20034;-75
2022/12/29 01:01:58;;;;;;;0.50;0.50;;;11.60;99.90;;;11.63;100.00;99838.97;5184832;28;20041;-73
2022/12/29 01:04:30;;;;;;;0.88;0.43;;;11.60;99.90;;;11.62;100.00;99843.31;5184481;28;20042;-73
2022/12/29 01:07:02;;;;;;;0.40;0.32;;;11.60;99.90;;;11.70;100.00;99846.03;5166972;28;20057;-73
2022/12/29 01:15:13;;;;;;;0.28;0.28;;;11.60;99.90;;;11.64;100.00;99846.81;5166088;28;20176;-73
2022/12/29 01:17:46;;;;;;;0.30;0.30;;;11.60;99.90;;;11.63;100.00;99839.84;5183850;28;20038;-76
2022/12/29 01:20:19;;;;;;;0.25;0.25;;;11.60;99.90;;;11.75;100.00;99848.75;5166458;28;20134;-74
2022/12/29 01:22:51;;;;;;;0.20;0.20;;;11.60;99.90;;;11.81;100.00;99847.13;5184376;28;20053;-77
2022/12/29 01:25:25;;;;;;;0.35;0.35;;;11.70;99.90;;;11.81;100.00;99838.41;5183805;28;20038;-74
2022/12/29 01:27:57;;;;;;;0.30;0.30;;;11.70;99.90;;;11.76;100.00;99845.25;5165952;28;20048;-72
2022/12/29 01:30:31;;;;;;;0.22;0.22;;;11.70;99.90;;;11.81;100.00;99843.63;5183834;28;20042;-72
2022/12/29 01:33:05;;;;;;;0.75;0.40;;;11.70;99.90;;;11.80;100.00;99847.03;5184011;28;20049;-73
2022/12/29 01:35:38;;;;;;;0.40;0.40;;;11.70;99.90;;;11.78;100.00;99835.72;5165759;28;20042;-75
2022/12/29 01:38:11;;;;;;;0.50;0.50;;;11.70;99.90;;;11.84;100.00;99838.44;5166163;28;20092;-74
2022/12/29 01:40:47;;;;;;;0.30;0.30;;;11.70;99.90;;;11.85;100.00;99843.69;5165691;28;20072;-74
2022/12/29 01:43:19;;;;;;;0.30;0.30;;;11.80;99.90;;;11.84;100.00;99838.44;5182634;28;20046;-73
2022/12/29 01:45:54;;;;;;;0.38;0.38;;;11.80;99.90;;;11.94;100.00;99845.56;5166574;28;20208;-74
2022/12/29 01:48:28;;;;;;;0.40;0.40;;;11.80;99.90;;;12.01;100.00;99842.19;5165774;28;20092;-75
2022/12/29 01:51:00;;;;;;;0.40;0.32;;;11.90;99.90;;;11.96;100.00;99854.28;5166135;28;20125;-74
2022/12/29 01:53:35;;;;;;;0.40;0.40;;;11.80;99.90;;;12.01;100.00;99857.84;5165974;28;20046;-73
2022/12/29 01:56:12;;;;;;;0.63;0.38;;;11.90;99.90;;;12.01;100.00;99847.41;5183648;28;20049;-75
2022/12/29 01:58:49;;;;;;;0.60;0.40;;;11.90;99.90;;;12.00;100.00;99844.75;5165654;28;20263;-73
2022/12/29 02:01:22;;;;;;;1.13;0.38;;;11.90;99.90;;;12.03;100.00;99845.69;5206654;28;20061;-73
2022/12/29 02:03:57;;;;;;;0.63;0.47;;;11.90;99.90;;;12.02;100.00;99838.72;5203089;28;20045;-74
2022/12/29 02:06:35;;;;;;;0.43;0.43;;;11.90;99.90;;;12.06;100.00;99835.31;5202720;28;20052;-72
2022/12/29 02:09:07;;;;;;;0.40;0.40;;;11.90;99.90;;;12.02;100.00;99807.38;5202570;28;20057;-73
2022/12/29 02:11:40;;;;;;;0.52;0.40;;;11.90;99.90;;;12.03;100.00;99814.34;5202671;28;20053;-76
2022/12/29 02:14:14;;;;;;;0.63;0.60;;;11.90;99.90;;;12.01;100.00;99810.84;5202938;28;20059;-73
2022/12/29 02:17:04;;;;;;;0.32;0.32;;;11.90;99.90;;;12.01;100.00;99803.00;5202742;28;20054;-73
2022/12/29 02:20:26;;;;;;;1.35;0.50;;;11.90;99.90;;;12.01;100.00;99803.00;5202547;28;20041;-72
2022/12/29 02:23:36;;;;;;;0.40;0.38;;;11.90;99.90;;;11.98;100.00;99805.56;5169792;28;20049;-73
2022/12/29 02:27:05;;;;;;;2.08;0.43;;;11.90;99.90;;;11.98;100.00;99800.34;5202240;28;20402;-73
2022/12/29 02:30:08;;;;;;;0.55;0.32;;;11.90;99.90;;;11.96;100.00;99802.06;5203651;28;20112;-73
2022/12/29 02:32:51;;;;;;;0.32;0.32;;;11.90;99.90;;;11.96;100.00;99796.84;5202481;28;20152;-76
2022/12/29 02:35:33;;;;;;;0.38;0.32;;;11.90;99.90;;;11.97;100.00;99793.38;5204068;28;20049;-73
2022/12/29 02:38:21;;;;;;;0.50;0.50;;;11.90;99.90;;;12.00;100.00;99792.53;5201811;28;20048;-73
2022/12/29 02:41:03;;;;;;;0.50;0.50;;;11.90;99.90;;;12.05;100.00;99806.53;5203673;28;20036;-73
2022/12/29 02:43:43;;;;;;;1.55;0.50;;;11.90;99.90;;;12.11;100.00;99791.81;5202766;28;20136;-76
2022/12/29 02:46:23;;;;;;;0.93;0.40;;;12.00;99.90;;;12.11;100.00;99797.03;5202778;28;20058;-75
2022/12/29 02:49:08;;;;;;;0.80;0.30;;;12.00;99.90;;;12.10;100.00;99782.22;5185532;28;20045;-72
2022/12/29 02:51:51;;;;;;;0.52;0.43;;;12.00;99.90;;;12.11;100.00;99786.59;5204152;28;20538;-73
2022/12/29 02:54:41;;;;;;;0.50;0.50;;;12.00;99.90;;;12.12;100.00;99782.22;5207307;28;20045;-74
2022/12/29 02:57:29;;;;;;;0.32;0.32;;;12.00;99.90;;;12.09;100.00;99777.84;5206403;28;20457;-73
2022/12/29 03:00:08;;;;;;;0.40;0.32;;;12.00;99.90;;;12.07;100.00;99774.34;5205867;28;20038;-73
2022/12/29 03:03:03;;;;;;;0.60;0.60;;;12.00;99.90;;;12.06;100.00;99783.06;5206408;28;20049;-72
2022/12/29 03:06:00;;;;;;;0.70;0.40;;;12.00;99.90;;;12.03;100.00;99772.56;5206322;28;20049;-73
2022/12/29 03:08:43;;;;;;;0.50;0.50;;;11.90;99.90;;;12.03;100.00;99762.09;5205718;28;20534;-73
2022/12/29 03:17:05;;;;;;;0.60;0.60;;;12.00;99.90;;;12.06;100.00;99751.72;5207232;28;20089;-73
2022/12/29 03:19:48;;;;;;;1.65;0.30;;;12.00;99.90;;;12.06;100.00;99751.72;5205671;28;20046;-72
2022/12/29 03:22:31;;;;;;;0.70;0.60;;;12.00;99.90;;;12.09;100.00;99743.91;5205943;28;20584;-72
2022/12/29 03:25:21;;;;;;;0.35;0.35;;;12.00;99.90;;;12.06;100.00;99746.50;5205739;28;20462;-73
2022/12/29 03:28:00;;;;;;;0.40;0.40;;;12.00;99.90;;;12.07;100.00;99737.78;5205480;28;20392;-73
2022/12/29 03:30:37;;;;;;;0.35;0.35;;;12.00;99.90;;;12.05;100.00;99738.63;5205707;28;20616;-72
2022/12/29 03:33:14;;;;;;;1.27;0.68;;;12.00;99.90;;;12.03;100.00;99741.22;5205780;28;20506;-73
2022/12/29 03:35:49;;;;;;;0.60;0.43;;;12.00;99.90;;;12.07;100.00;99749.97;5205360;28;20069;-72
2022/12/29 03:38:30;;;;;;;0.82;0.32;;;12.00;99.90;;;12.07;100.00;99737.78;5205470;28;20498;-73
2022/12/29 03:41:08;;;;;;;0.52;0.50;;;12.00;99.90;;;12.06;100.00;99735.13;5205473;28;20123;-73
2022/12/29 03:43:41;;;;;;;0.75;0.45;;;12.00;99.90;;;12.04;100.00;99736.88;5205616;28;20153;-73
2022/12/29 03:46:14;;;;;;;0.50;0.50;;;12.00;99.90;;;12.08;100.00;99738.66;5206775;28;20049;-73
2022/12/29 03:48:48;;;;;;;0.95;0.50;;;12.00;99.90;;;12.08;100.00;99734.31;5205069;28;20525;-73
2022/12/29 03:51:20;;;;;;;0.98;0.43;;;12.00;99.90;;;12.08;100.00;99736.94;5205603;28;20491;-74
2022/12/29 03:53:54;;;;;;;1.38;0.43;;;12.00;99.90;;;12.09;100.00;99740.41;5206734;28;20103;-73
2022/12/29 03:56:26;;;;;;;0.38;0.38;;;12.00;99.90;;;12.18;100.00;99730.94;5205297;28;20045;-73
2022/12/29 03:58:59;;;;;;;1.33;0.45;;;12.10;99.90;;;12.26;100.00;99730.13;5206751;28;20046;-73
2022/12/29 04:01:38;;;;;;;1.15;0.40;;;12.10;99.90;;;12.28;100.00;99725.84;5205233;28;20045;-72
2022/12/29 04:04:10;;;;;;;0.77;0.52;;;12.10;99.90;;;12.27;100.00;99713.63;5206432;28;20053;-73
2022/12/29 04:06:43;;;;;;;0.50;0.45;;;12.20;99.90;;;12.26;100.00;99702.31;5206261;28;20477;-74
2022/12/29 04:09:16;;;;;;;2.00;0.73;;;12.10;99.90;;;12.21;100.00;99704.84;5204829;28;20041;-74
2022/12/29 04:11:51;;;;;;;0.70;0.55;;;12.20;99.90;;;12.16;100.00;99703.94;5204645;28;20590;-74
2022/12/29 04:14:25;;;;;;;0.25;0.25;;;12.10;99.90;;;12.16;100.00;99717.00;5205032;28;20099;-72
2022/12/29 04:16:58;;;;;;;1.02;0.63;;;12.10;99.90;;;12.17;100.00;99718.72;5204676;28;20156;-73
2022/12/29 04:19:33;;;;;;;0.50;0.50;;;12.10;99.90;;;12.13;100.00;99711.75;5204234;28;20291;-72
2022/12/29 04:22:06;;;;;;;0.35;0.35;;;12.10;99.90;;;12.15;100.00;99714.38;5204363;28;20073;-73
2022/12/29 04:24:40;;;;;;;1.20;0.70;;;12.10;99.90;;;12.16;100.00;99705.66;5205083;28;20057;-72
2022/12/29 04:27:16;;;;;;;0.60;0.60;;;12.10;99.90;;;12.17;100.00;99697.84;5204560;28;20320;-73
2022/12/29 04:30:11;;;;;;;0.95;0.50;;;12.10;99.90;;;12.22;100.00;99695.28;5204347;28;20045;-74
2022/12/29 04:32:53;;;;;;;0.70;0.50;;;12.10;99.90;;;12.17;100.00;99686.50;5204347;28;20050;-72
2022/12/29 04:35:26;;;;;;;0.57;0.43;;;12.10;99.90;;;12.12;100.00;99676.00;5204645;28;20045;-73
2022/12/29 04:37:58;;;;;;;0.43;0.43;;;12.00;99.90;;;12.13;100.00;99672.56;5204316;28;20138;-71
2022/12/29 04:40:32;;;;;;;0.35;0.30;;;12.00;99.90;;;12.13;100.00;99674.31;5204249;28;20053;-73
2022/12/29 04:43:05;;;;;;;0.55;0.43;;;12.10;99.90;;;12.16;100.00;99672.56;5205164;28;20041;-73
2022/12/29 04:45:44;;;;;;;1.33;0.60;;;12.10;99.90;;;12.18;100.00;99678.69;5203926;28;20143;-73
2022/12/29 04:48:29;;;;;;;1.75;0.50;;;12.10;99.90;;;12.15;100.00;99694.34;5204090;28;20442;-74
2022/12/29 04:51:14;;;;;;;0.47;0.43;;;12.10;99.90;;;12.18;100.00;99701.31;5203737;28;20060;-73
2022/12/29 04:53:47;;;;;;;0.52;0.40;;;12.10;99.90;;;12.14;100.00;99708.28;5262701;23;20045;-68
2022/12/29 04:56:22;;;;;;;0.40;0.30;;;12.10;99.90;;;12.16;100.00;99716.13;5221670;28;20529;-68
2022/12/29 04:58:54;;;;;;;0.43;0.40;;;12.10;99.90;;;12.11;100.00;99715.19;5182937;28;20046;-68
2022/12/29 05:01:28;;;;;;;0.30;0.30;;;12.00;99.90;;;12.06;100.00;99725.59;5166690;28;20096;-67
2022/12/29 05:04:00;;;;;;;1.27;0.45;;;12.00;99.90;;;12.04;100.00;99722.06;5168259;28;20057;-68
2022/12/29 05:06:33;;;;;;;0.38;0.38;;;12.00;99.90;;;12.00;100.00;99725.53;5180273;28;20057;-69
2022/12/29 05:09:06;;;;;;;0.50;0.38;;;12.00;99.90;;;11.97;100.00;99717.63;5186285;28;20053;-69
2022/12/29 05:11:41;;;;;;;0.70;0.32;;;11.90;99.90;;;11.93;100.00;99711.50;5186487;28;20053;-69
2022/12/29 05:14:15;;;;;;;0.80;0.50;;;11.90;99.90;;;11.92;100.00;99711.47;5186510;28;20037;-69
2022/12/29 05:16:48;;;;;;;0.75;0.32;;;11.80;99.90;;;11.89;100.00;99711.44;5185962;28;20045;-68
2022/12/29 05:19:21;;;;;;;0.57;0.43;;;11.80;99.90;;;11.90;100.00;99713.19;5186506;28;20053;-69
2022/12/29 05:21:54;;;;;;;0.85;0.35;;;11.80;99.90;;;11.89;100.00;99719.28;5187021;28;20056;-69
2022/12/29 05:24:26;;;;;;;1.20;0.50;;;11.80;99.90;;;11.94;100.00;99725.44;5187407;28;20514;-69
2022/12/29 05:27:04;;;;;;;0.47;0.43;;;11.90;99.90;;;11.93;100.00;99731.50;5186581;28;20072;-69
2022/12/29 05:30:08;;;;;;;0.43;0.40;;;11.80;99.90;;;11.89;100.00;99729.72;5186575;28;20056;-70
2022/12/29 05:32:41;;;;;;;0.47;0.30;;;11.80;99.90;;;11.92;100.00;99734.97;5185875;28;20060;-70
2022/12/29 05:35:13;;;;;;;0.15;0.15;;;11.80;99.90;;;11.90;100.00;99745.41;5184032;28;20571;-70
2022/12/29 05:37:46;;;;;;;0.28;0.28;;;11.80;99.90;;;11.97;100.00;99746.34;5185482;28;20045;-70
2022/12/29 05:40:19;;;;;;;0.68;0.30;;;11.90;99.90;;;11.97;100.00;99746.34;5203987;28;20119;-70
2022/12/29 05:42:53;;;;;;;0.40;0.40;;;11.90;99.90;;;11.96;100.00;99744.59;5186048;28;20140;-71
2022/12/29 05:45:39;;;;;;;0.30;0.30;;;11.90;99.90;;;11.94;100.00;99746.34;5186317;28;20049;-69
2022/12/29 05:48:31;;;;;;;0.43;0.32;;;11.90;99.90;;;11.92;100.00;99743.69;5203476;28;20125;-69
2022/12/29 05:51:16;;;;;;;0.32;0.32;;;11.90;99.90;;;11.97;100.00;99738.53;5185040;28;20128;-70
2022/12/29 05:53:54;;;;;;;0.52;0.45;;;11.90;99.90;;;11.96;100.00;99734.16;5195964;28;20478;-70
2022/12/29 05:56:27;;;;;;;0.13;0.13;;;11.90;99.90;;;11.97;100.00;99730.69;5185338;28;20047;-70
2022/12/29 05:59:06;;;;;;;0.40;0.40;;;11.90;99.90;;;12.03;100.00;99742.94;5203411;28;20433;-70
2022/12/29 06:01:39;;;;;;;;;;;11.90;99.90;;;12.01;100.00;99742.06;5186333;28;20486;-70
2022/12/29 06:04:11;;;;;;;0.20;0.20;;;11.90;99.90;;;11.97;100.00;99748.09;5202041;28;19921;-70
2022/12/29 06:06:43;;;;;;;0.40;0.40;;;11.90;99.90;;;11.96;100.00;99762.88;5185645;28;20049;-70
2022/12/29 06:09:23;;;;;;;0.30;0.30;;;11.90;99.90;;;11.99;100.00;99755.06;5185624;28;20508;-70
2022/12/29 06:11:55;;;;;;;0.75;0.55;;;11.90;99.90;;;11.99;100.00;99752.47;5186365;28;20050;-70
2022/12/29 06:14:30;;;;;;;0.32;0.32;;;11.90;99.90;;;11.96;100.00;99770.72;5185642;28;20144;-70
2022/12/29 06:17:04;;;;;;;0.35;0.35;;;11.90;99.90;;;11.93;100.00;99761.13;5185645;28;20078;-70
2022/12/29 06:19:36;;;;;;;0.50;0.40;;;11.90;99.90;;;11.95;100.00;99761.13;5179580;28;20529;-70
2022/12/29 06:22:11;;;;;;;0.82;0.50;;;11.90;99.90;;;11.93;100.00;99761.13;5200422;28;20045;-70
2022/12/29 06:24:45;;;;;;;0.85;0.30;;;11.90;99.90;;;11.92;100.00;99771.53;5185613;28;20056;-70
2022/12/29 06:27:18;;;;;;;0.30;0.30;;;11.80;99.90;;;11.94;100.00;99767.22;5187541;28;20053;-68
2022/12/29 06:29:52;;;;;;;0.22;0.22;;;11.90;99.90;;;11.90;100.00;99757.59;5189440;28;20498;-68
2022/12/29 06:32:25;;;;;;;0.22;0.22;;;11.80;99.90;;;11.91;100.00;99761.94;5189612;28;20133;-68
2022/12/29 06:35:00;;;;;;;0.40;0.40;;;11.90;99.90;;;12.01;100.00;99756.00;5185326;28;20311;-68
2022/12/29 06:37:32;;;;;;;0.32;0.32;;;11.90;99.90;;;11.98;100.00;99749.84;5188617;28;20520;-68
2022/12/29 06:40:06;;;;;;;0.43;0.43;;;11.90;99.90;;;11.97;100.00;99750.72;5207406;28;20044;-69
2022/12/29 06:42:53;;;;;;;1.38;0.32;;;11.90;99.90;;;11.92;100.00;99748.03;5207031;28;20116;-69
2022/12/29 06:45:45;;;;;;;0.50;0.47;;;11.80;99.90;;;11.88;100.00;99748.88;5207332;28;20064;-69
2022/12/29 06:48:18;;;;;;;0.70;0.40;;;11.80;99.90;;;11.86;100.00;99769.72;5206900;28;20033;-69
2022/12/29 06:50:50;;;;;;;0.40;0.35;;;11.80;99.90;;;11.88;100.00;99777.59;5205969;28;20042;-69
2022/12/29 06:53:22;;;;;;;0.32;0.30;;;11.80;99.90;;;11.91;100.00;99780.22;5206849;28;20132;-68
2022/12/29 06:55:56;;;;;;;0.45;0.30;;;11.80;99.90;;;11.91;100.00;99781.09;5207190;28;20140;-68
2022/12/29 06:58:28;;;;;;;1.10;0.30;;;11.80;99.90;;;11.93;100.00;99786.34;5206462;28;20096;-68
2022/12/29 07:01:03;;;;;;;0.25;0.22;;;11.80;99.90;;;11.96;100.00;99791.63;5207264;28;20128;-68
2022/12/29 07:03:36;;;;;;;0.28;0.28;;;11.90;99.90;;;11.99;100.00;99773.34;5188828;28;20049;-58
2022/12/29 07:06:08;;;;;;;0.20;0.20;;;11.90;99.90;;;12.02;100.00;99780.38;5197265;28;20557;-58
2022/12/29 07:08:40;;;;;;;0.80;0.30;;;11.90;99.90;;;12.06;100.00;99788.28;5206014;28;20049;-58
2022/12/29 07:11:12;;;;;;;2.13;0.40;;;11.90;99.90;;;12.04;100.00;99760.38;5206567;28;20044;-57
2022/12/29 07:13:45;;;;;;;0.20;0.20;;;11.90;99.90;;;12.05;100.00;99765.59;5206707;28;20034;-58
2022/12/29 07:16:18;;;;;;;0.75;0.28;;;11.90;99.90;;;12.05;100.00;99786.50;5206521;28;20506;-59
2022/12/29 07:18:51;;;;;;;0.50;0.50;;;11.90;99.90;;;12.02;100.00;99790.81;5206021;28;20045;-59
2022/12/29 07:21:23;;;;;;;0.30;0.13;;;11.90;99.90;;;11.98;100.00;99797.72;5196963;28;20038;-58
2022/12/29 07:23:55;;;;;;;0.38;0.38;;;11.90;99.90;;;12.00;100.00;99788.19;5188414;28;20506;-58
2022/12/29 07:26:28;;;;;;;1.48;0.28;;;11.90;99.90;;;11.98;100.00;99800.34;5188496;28;20103;-57
2022/12/29 07:29:01;;;;;;;0.22;0.22;;;11.90;99.90;;;11.95;100.00;99805.53;5206242;28;20053;-58
2022/12/29 07:31:35;;;;;;;0.55;0.40;;;11.90;99.90;;;11.91;100.00;99815.06;5205989;28;20048;-58
2022/12/29 07:34:09;;;;;;;0.32;0.22;;;11.80;99.90;;;11.90;100.00;99825.47;5204066;28;20042;-59
2022/12/29 07:36:41;;;;;;;0.65;0.38;;;11.80;99.90;;;11.90;100.00;99839.41;5199281;28;20128;-58
2022/12/29 07:39:13;;;;;;;0.40;0.20;;;11.80;99.90;;;11.90;100.00;99843.75;5204224;28;20049;-58
2022/12/29 07:41:45;;;;;;;0.63;0.25;;;11.80;99.90;;;11.89;100.00;99847.22;5205582;28;20037;-58
2022/12/29 07:44:22;;;;;;;0.30;0.30;;;11.80;99.90;;;11.87;100.00;99848.97;5188327;28;20458;-59
2022/12/29 07:47:31;;;;;;;0.22;0.22;;;11.80;99.90;;;11.85;100.00;99848.03;5141576;28;20114;-58
2022/12/29 07:50:05;;;;;;;0.30;0.30;;;11.80;99.90;;;11.82;100.00;99861.94;5194291;28;20053;-58
2022/12/29 07:52:37;;;;;;;0.20;0.20;;;11.80;99.90;;;11.81;100.00;99848.88;5205167;28;20819;-58
2022/12/29 07:55:10;;;;;;;0.22;0.22;;;11.70;99.90;;;11.82;100.00;99864.53;5187940;28;20171;-58
2022/12/29 07:57:42;;;;;;;1.23;0.40;;;11.80;99.90;;;11.81;100.00;99869.75;5205195;28;20104;-59
2022/12/29 08:00:16;;;;;;;0.47;0.30;;;11.70;99.90;;;11.79;100.00;99877.50;5205712;28;20465;-57
2022/12/29 08:02:49;;;;;;;1.20;1.10;;;11.70;99.90;;;11.80;100.00;99883.59;5205243;28;20045;-57
2022/12/29 08:05:22;;;;;;;0.30;0.22;;;11.70;99.90;;;11.80;100.00;99883.59;5204025;28;20518;-58
2022/12/29 08:07:54;;;;;;;0.35;0.30;;;11.70;99.90;;;11.79;100.00;99884.47;5204916;28;20048;-58
2022/12/29 08:10:27;;;;;;;0.25;0.22;;;11.70;99.90;;;11.82;100.00;99887.16;5205476;28;20054;-58
2022/12/29 08:12:59;;;;;;;0.25;0.22;;;11.70;99.90;;;11.82;100.00;99889.78;5205340;28;20121;-57
2022/12/29 08:15:31;;;;;;;0.32;0.30;;;11.70;99.90;;;11.81;100.00;99885.41;5205078;28;20615;-58
2022/12/29 08:18:05;;;;;;;0.35;0.35;;;11.70;99.90;;;11.81;100.00;99890.63;5204792;28;20064;-58
2022/12/29 08:20:38;;;;;;;0.60;0.40;;;11.70;99.90;;;11.80;100.00;99897.56;5198249;28;20049;-58
2022/12/29 08:23:10;;;;;;;0.50;0.28;;;11.70;99.90;;;11.79;100.00;99890.56;5204908;28;20128;-59
2022/12/29 08:25:42;;;;;;;0.75;0.35;;;11.70;99.90;;;11.80;100.00;99904.50;5205007;28;20041;-59
2022/12/29 08:28:14;;;;;;;0.35;0.32;;;11.70;99.90;;;11.79;100.00;99897.50;5204818;28;20116;-59
2022/12/29 08:30:46;;;;;;;0.52;0.32;;;11.70;99.90;;;11.79;100.00;99894.91;5204941;28;20120;-57
2022/12/29 08:33:20;;;;;;;0.47;0.47;;;11.70;99.90;;;11.78;100.00;99891.41;5205007;28;20550;-57
2022/12/29 08:35:52;;;;;;;0.98;0.50;;;11.70;99.90;;;11.96;100.00;99898.69;5199028;28;20046;-57
2022/12/29 08:38:25;;;;;;;1.55;0.32;;;11.90;99.90;;;12.33;100.00;99896.63;5204325;28;20053;-56
2022/12/29 08:40:57;;;;;;;1.13;0.30;;;12.30;99.90;;;12.71;100.00;99890.13;5204997;28;20457;-56
2022/12/29 08:43:30;;;;;;;2.15;0.50;;;12.70;99.90;;;13.06;100.00;99897.47;5204881;28;20050;-57
2022/12/29 08:46:02;;;;;;;1.75;0.45;;;13.10;99.90;;;13.26;100.00;99902.94;5204762;28;20056;-56
2022/12/29 08:48:36;;;;;;;1.05;0.60;;;13.40;99.90;;;13.40;100.00;99903.09;5204445;28;20045;-57
2022/12/29 08:51:08;;;;;;;1.73;0.60;;;13.50;99.90;;;13.48;100.00;99897.03;5195723;28;20449;-58
2022/12/29 08:53:41;;;;;;;1.50;0.38;;;13.60;99.90;;;13.42;100.00;99909.19;5204634;28;20103;-56
2022/12/29 08:56:14;;;;;;;1.98;0.57;;;13.60;99.90;;;13.23;100.00;99911.63;5204542;28;20091;-56
2022/12/29 08:58:54;;;;;;;0.43;0.43;;;13.30;99.90;;;13.01;100.00;99909.63;5204215;28;20033;-56
2022/12/29 09:01:30;;;;;;;0.45;0.43;;;13.10;99.90;;;12.83;100.00;99909.41;5186433;28;20045;-55
2022/12/29 09:04:03;;;;;;;0.57;0.45;;;12.90;99.90;;;12.70;100.00;99913.63;5204443;28;20473;-56
2022/12/29 09:06:36;;;;;;;3.15;0.55;;;12.70;99.90;;;12.61;100.00;99929.22;5203924;28;20072;-57
2022/12/29 09:09:08;;;;;;;1.17;0.70;;;12.60;99.90;;;12.47;100.00;99929.91;5204075;28;20529;-56
2022/12/29 09:11:41;;;;;;;0.93;0.50;;;12.50;99.90;;;12.41;100.00;99942.00;5204287;28;20584;-56
2022/12/29 09:14:14;;;;;;;1.77;0.80;;;12.40;99.90;;;12.35;100.00;99936.69;5204077;28;20518;-56
2022/12/29 09:19:37;;;;;;;2.33;0.73;;;12.20;99.90;;;12.29;100.00;99945.34;5201712;28;20437;-57
2022/12/29 09:22:10;;;;;;;4.45;0.80;;;12.20;99.90;;;12.21;100.00;99950.44;5200941;28;20510;-56
2022/12/29 09:24:42;;;;;;;2.50;0.40;;;12.10;99.90;;;12.18;100.00;99963.44;5204318;28;20449;-57
2022/12/29 09:27:14;;;;;;;0.50;0.40;;;12.10;99.90;;;12.14;100.00;99971.25;5198610;28;20128;-57
2022/12/29 09:29:47;;;;;;;1.20;0.32;;;12.10;99.90;;;12.12;100.00;99965.97;5203711;28;20109;-56
2022/12/29 09:32:19;;;;;;;0.73;0.50;;;12.00;99.90;;;12.08;100.00;99977.25;5193253;28;20073;-56
2022/12/29 09:34:52;;;;;;;1.88;0.50;;;12.00;99.90;;;12.07;100.00;99985.06;5202927;28;20044;-56
2022/12/29 09:37:25;;;;;;;0.77;0.30;;;12.00;99.90;;;12.06;100.00;99973.75;5193781;28;20038;-57
2022/12/29 09:39:57;;;;;;;0.85;0.40;;;12.00;99.90;;;12.07;100.00;99978.09;5199193;28;20075;-55
2022/12/29 09:42:37;;;;;;;1.63;0.98;;;12.00;99.90;;;12.09;100.00;99979.00;5204182;28;20077;-57
2022/12/29 09:45:18;;;;;;;2.20;0.55;;;12.00;99.90;;;12.14;100.00;99976.47;5204736;28;20041;-56
2022/12/29 09:47:50;;;;;;;2.85;0.50;;;12.00;99.90;;;12.15;100.00;99981.72;5204770;28;20513;-57
2022/12/29 09:50:29;;;;;;;1.42;0.43;;;12.00;99.90;;;12.12;100.00;99986.88;5198392;28;20037;-57
2022/12/29 09:53:06;;;;;;;2.28;0.70;;;12.00;99.90;;;12.12;100.00;99992.09;5203846;28;20056;-56
2022/12/29 09:55:41;;;;;;;1.58;0.55;;;12.00;99.90;;;12.11;100.00;99990.34;5186327;28;20103;-56
2022/12/29 09:58:22;;;;;;;3.83;0.70;;;12.00;99.90;;;12.10;100.00;99988.59;5204111;28;20040;-56
2022/12/29 10:01:03;;;;;;;1.60;0.88;;;12.00;99.90;;;12.12;100.00;99996.44;5203608;28;20049;-57
2022/12/29 10:03:48;;;;;;;2.10;1.00;;;12.00;99.90;;;12.12;100.00;99992.09;5210655;28;20402;-57
2022/12/29 10:06:28;;;;;;;2.83;0.93;;;12.00;99.90;;;12.11;100.00;99992.94;5209992;28;20156;-58
2022/12/29 10:09:10;;;;;;;1.60;0.43;;;12.00;99.90;;;12.13;100.00;99987.78;5210639;28;20128;-55
2022/12/29 10:12:04;;;;;;;2.85;0.68;;;12.00;99.90;;;12.13;100.00;99986.03;5210905;28;20049;-56
2022/12/29 10:14:59;;;;;;;1.02;0.45;;;12.00;99.90;;;12.18;99.98;99994.81;5210575;28;20050;-58
2022/12/29 10:17:40;;;;;;;1.50;0.50;;;12.10;99.90;;;12.23;99.96;99998.38;5210401;28;20049;-56
2022/12/29 10:20:29;;;;;;;2.45;0.80;;;12.10;99.90;;;12.30;99.62;99993.25;5208045;28;20681;-55
2022/12/29 10:23:23;;;;;;;1.63;0.80;;;12.20;99.90;;;12.35;99.29;99995.06;5208428;28;20113;-57
2022/12/29 10:25:57;;;;;;;1.70;0.73;;;12.20;99.90;;;12.47;98.70;99997.00;5201425;28;20050;-56
2022/12/29 10:28:38;;;;;;;2.90;0.70;;;12.30;99.90;;;12.62;98.42;100005.03;5208950;28;20069;-57
2022/12/29 10:31:19;;;;;;;;;;;12.40;99.90;;;12.74;97.63;99989.53;5204186;28;20049;-55
2022/12/29 10:33:59;;;;;;;1.23;0.65;;;12.50;99.90;;;12.83;96.60;99993.09;5192406;28;19928;-56
2022/12/29 10:36:39;;;;;;;3.55;0.73;;;12.60;99.90;;;12.93;96.53;99989.75;5210088;28;20107;-57
2022/12/29 10:39:22;;;;;;;2.35;0.57;;;12.70;99.90;;;13.07;96.28;99993.41;5209706;28;20512;-55
2022/12/29 10:42:02;;;;;;;2.75;0.80;;;12.80;99.90;;;13.26;95.54;99992.81;5207800;28;20045;-56
2022/12/29 10:44:35;;;;;;;2.15;0.63;;;13.00;99.90;;;13.40;93.80;99992.06;5172598;28;20077;-55
2022/12/29 10:47:13;;;;;;;4.22;1.23;;;13.10;99.90;;;13.41;93.88;99999.06;5188422;28;20136;-56
2022/12/29 10:49:48;;;;;;;1.95;0.55;;;13.20;99.90;;;13.36;94.02;99990.28;5189679;28;20053;-57
2022/12/29 10:52:23;;;;;;;2.22;0.52;;;13.10;99.90;;;13.30;93.44;100002.47;5210539;28;20128;-56
2022/12/29 10:55:02;;;;;;;1.73;0.40;;;13.10;99.90;;;13.23;93.58;99998.00;5268905;22;20146;-59
2022/12/29 10:57:37;;;;;;;2.55;0.70;;;13.10;99.90;;;13.20;93.49;99999.69;5201824;28;20129;-59
2022/12/29 11:00:14;;;;;;;1.60;0.73;;;13.00;99.90;;;13.15;93.36;99996.13;5210485;28;20140;-61
2022/12/29 11:03:16;;;;;;;1.58;0.52;;;13.00;99.90;;;13.09;94.34;99998.66;5210578;28;20122;-60
2022/12/29 11:05:57;;;;;;;1.95;0.50;;;13.00;99.90;;;13.08;94.77;100005.63;5210623;28;20037;-59
2022/12/29 11:08:34;;;;;;;2.78;0.60;;;12.90;99.90;;;13.09;95.34;100016.97;5209981;28;20045;-60
2022/12/29 11:11:10;;;;;;;1.08;0.60;;;12.90;99.90;;;13.12;95.03;100002.22;5210339;28;20044;-59
2022/12/29 11:13:50;;;;;;;2.00;0.80;;;12.90;99.90;;;13.10;95.04;100008.25;5207729;28;20045;-59
2022/12/29 11:16:31;;;;;;;3.28;0.55;;;12.90;99.90;;;13.10;94.25;100009.13;5207252;28;20208;-59
2022/12/29 11:19:04;;;;;;;2.00;0.70;;;12.90;99.90;;;13.07;94.65;99996.03;5206957;28;20067;-59
2022/12/29 11:21:40;;;;;;;1.00;0.47;;;12.90;99.90;;;13.06;94.89;100011.72;5205718;28;20073;-60
2022/12/29 11:24:23;;;;;;;2.03;0.60;;;12.90;99.90;;;13.07;94.43;100009.13;5207037;28;20095;-60
2022/12/29 11:27:15;;;;;;;0.90;0.45;;;12.90;99.90;;;13.14;94.71;100021.41;5206896;28;20418;-58
2022/12/29 11:29:48;;;;;;;0.70;0.45;;;12.90;99.90;;;13.26;94.83;100013.75;5205633;28;20058;-60
2022/12/29 11:32:23;;;;;;;2.85;0.68;;;13.00;99.90;;;13.33;93.46;100021.66;5206951;28;20045;-59
2022/12/29 11:34:55;;;;;;;1.15;0.45;;;13.10;99.90;;;13.33;93.20;100019.94;5207548;28;20049;-59
2022/12/29 11:37:31;;;;;;;2.55;0.57;;;13.10;99.90;;;13.35;92.51;100030.41;5206416;28;20122;-59